This is the latest recevied weather packets stored in our database for station/object LU8AQL-WX. If no packets are shown the sender has not sent any weather packets the latest 10 day(s).
| Time | Temp. | Humidity | Pressure | Rain* | Wind** | Luminosity | Snow |
|---|---|---|---|---|---|---|---|
| 1777463251 | 13.89° C | 71% | 1010 hPa | 0 mm | - | - | - |
| 1777462650 | 13.89° C | 70% | 1010 hPa | 0 mm | - | - | - |
| 1777462049 | 13.89° C | 71% | 1010 hPa | 0 mm | - | - | - |
| 1777461448 | 13.89° C | 71% | 1010 hPa | 0 mm | - | - | - |
| 1777460847 | 13.89° C | 71% | 1010 hPa | 0 mm | - | - | - |
| 1777460246 | 13.89° C | 68% | 1010 hPa | 0 mm | - | - | - |
| 1777459646 | 13.33° C | 72% | 1010 hPa | 0 mm | - | - | - |
| 1777459044 | 13.33° C | 71% | 1010 hPa | 0 mm | - | - | - |
| 1777458444 | 13.33° C | 71% | 1009 hPa | 0 mm | - | - | - |
| 1777457843 | 13.33° C | 71% | 1009 hPa | 0 mm | - | - | - |
| 1777457242 | 13.33° C | 72% | 1009 hPa | 0 mm | - | - | - |
| 1777456641 | 12.78° C | 76% | 1009 hPa | 0 mm | - | - | - |
| 1777456040 | 12.78° C | 75% | 1009 hPa | 0 mm | - | - | - |
| 1777455439 | 12.78° C | 72% | 1009 hPa | 0 mm | - | - | - |
| 1777454838 | 12.78° C | 73% | 1010 hPa | 0 mm | - | - | - |
| 1777454237 | 12.78° C | 74% | 1010 hPa | 0 mm | - | - | - |
| 1777453636 | 12.22° C | 75% | 1010 hPa | 0 mm | - | - | - |
| 1777453036 | 12.22° C | 75% | 1010 hPa | 0 mm | - | - | - |
| 1777452435 | 12.78° C | 74% | 1010 hPa | 0 mm | - | - | - |
| 1777451834 | 13.33° C | 70% | 1010 hPa | 0 mm | - | - | - |
| 1777451233 | 12.78° C | 74% | 1011 hPa | 0 mm | - | - | - |
| 1777450632 | 12.78° C | 74% | 1011 hPa | 0 mm | - | - | - |
| 1777450031 | 12.78° C | 75% | 1011 hPa | 0 mm | - | - | - |
| 1777449430 | 12.78° C | 75% | 1011 hPa | 0 mm | - | - | - |
| 1777448829 | 12.78° C | 74% | 1011 hPa | 0 mm | - | - | - |
* Rain latest hour (hover to see other rain measurements)
** Current wind speed in m/s (hover to see current wind gust speed)